createdAt,value
2023-01-08T00:02:45.754Z,7.19
2023-01-08T00:05:47.770Z,7.16
2023-01-08T00:08:49.607Z,7.20
2023-01-08T00:11:51.410Z,7.22
2023-01-08T00:14:53.469Z,7.24
2023-01-08T00:17:57.350Z,7.25
2023-01-08T00:20:59.487Z,7.30
2023-01-08T00:24:01.641Z,7.32
2023-01-08T00:27:03.636Z,7.24
2023-01-08T00:30:07.775Z,7.28
2023-01-08T00:33:11.785Z,7.28
2023-01-08T00:36:15.195Z,7.28
2023-01-08T00:39:16.932Z,7.34
2023-01-08T00:42:19.278Z,7.34
2023-01-08T00:45:21.264Z,7.35
2023-01-08T00:48:25.655Z,7.37
2023-01-08T00:51:27.827Z,7.34
2023-01-08T00:54:29.758Z,7.37
2023-01-08T00:57:33.380Z,7.38
2023-01-08T01:00:35.314Z,7.36
2023-01-08T01:03:38.548Z,7.40
2023-01-08T01:06:42.502Z,7.41
2023-01-08T01:09:44.308Z,7.42
2023-01-08T01:12:46.535Z,7.39
2023-01-08T01:15:56.424Z,7.43
2023-01-08T01:18:59.688Z,7.43
2023-01-08T01:22:01.866Z,7.40
2023-01-08T01:25:03.942Z,7.48
2023-01-08T01:28:06.002Z,7.48
2023-01-08T01:31:10.805Z,7.52
2023-01-08T01:34:14.168Z,7.47
2023-01-08T01:37:16.640Z,7.54
2023-01-08T01:40:18.797Z,7.54
2023-01-08T01:43:33.171Z,7.58
2023-01-08T01:46:38.421Z,7.57
2023-01-08T01:49:47.165Z,7.59
2023-01-08T01:52:55.068Z,7.59
2023-01-08T01:55:58.943Z,7.56
2023-01-08T01:59:01.181Z,7.61
2023-01-08T02:02:05.142Z,7.66
2023-01-08T02:05:09.354Z,7.66
2023-01-08T02:08:13.551Z,7.65
2023-01-08T02:11:22.561Z,7.65
2023-01-08T02:14:35.717Z,7.66
2023-01-08T02:17:43.688Z,7.61
2023-01-08T02:20:54.642Z,7.63
2023-01-08T02:24:03.269Z,7.59
2023-01-08T02:27:11.948Z,7.58
2023-01-08T02:30:13.791Z,7.59
2023-01-08T02:33:16.543Z,7.59
2023-01-08T02:36:33.244Z,7.57
2023-01-08T02:39:50.881Z,7.59
2023-01-08T02:42:59.109Z,7.56
2023-01-08T02:46:02.499Z,7.54
2023-01-08T02:49:10.379Z,7.57
2023-01-08T02:52:15.403Z,7.58
2023-01-08T02:55:19.764Z,7.59
2023-01-08T02:58:24.620Z,7.59
2023-01-08T03:01:29.071Z,7.55
2023-01-08T03:04:34.620Z,7.57
2023-01-08T03:07:36.936Z,7.57
2023-01-08T03:10:43.151Z,7.55
2023-01-08T03:13:54.049Z,7.61
2023-01-08T03:17:01.340Z,7.64
2023-01-08T03:20:08.941Z,7.61
2023-01-08T03:23:12.529Z,7.63
2023-01-08T03:26:18.341Z,7.63
2023-01-08T03:29:24.559Z,7.64
2023-01-08T03:32:29.463Z,7.62
2023-01-08T03:35:32.664Z,7.62
2023-01-08T03:38:40.544Z,7.63
2023-01-08T03:41:42.755Z,7.64
2023-01-08T03:44:45.970Z,7.64
2023-01-08T03:47:48.916Z,7.64
2023-01-08T03:50:51.069Z,7.63
2023-01-08T03:53:58.514Z,7.64
2023-01-08T03:57:00.854Z,7.67
2023-01-08T04:00:05.564Z,7.64
2023-01-08T04:03:07.807Z,7.65
2023-01-08T04:06:09.437Z,7.66
2023-01-08T04:09:11.274Z,7.64
2023-01-08T04:12:13.098Z,7.63
2023-01-08T04:15:16.847Z,7.62
2023-01-08T04:18:19.080Z,7.61
2023-01-08T04:21:20.841Z,7.61
2023-01-08T04:24:22.795Z,7.60
2023-01-08T04:27:24.610Z,7.52
2023-01-08T04:30:27.831Z,7.50
2023-01-08T04:33:29.783Z,7.48
2023-01-08T04:36:31.737Z,7.46
2023-01-08T04:39:33.701Z,7.40
2023-01-08T04:42:35.480Z,7.40
2023-01-08T04:45:38.643Z,7.39
2023-01-08T04:48:40.616Z,7.33
2023-01-08T04:51:42.408Z,7.38
2023-01-08T04:54:44.593Z,7.36
2023-01-08T04:57:49.025Z,7.37
2023-01-08T05:00:52.162Z,7.34
2023-01-08T05:03:55.035Z,7.34
2023-01-08T05:06:56.874Z,7.30
2023-01-08T05:09:58.686Z,7.34
2023-01-08T05:13:01.343Z,7.30
2023-01-08T05:16:05.483Z,7.32
2023-01-08T05:19:07.587Z,7.32
2023-01-08T05:22:09.425Z,7.30
2023-01-08T05:25:11.180Z,7.34
2023-01-08T05:28:13.082Z,7.32
2023-01-08T05:31:16.587Z,7.37
2023-01-08T05:34:18.588Z,7.32
2023-01-08T05:37:20.422Z,7.26
2023-01-08T05:40:22.336Z,7.29
2023-01-08T05:43:24.163Z,7.28
2023-01-08T05:46:27.606Z,7.25
2023-01-08T05:49:32.137Z,7.23
2023-01-08T05:52:34.010Z,7.20
2023-01-08T05:55:36.677Z,7.21
2023-01-08T05:58:39.006Z,7.20
2023-01-08T06:01:42.474Z,7.14
2023-01-08T06:04:44.840Z,7.16
2023-01-08T06:07:46.603Z,7.16
2023-01-08T06:10:48.416Z,7.17
2023-01-08T06:13:50.272Z,7.11
2023-01-08T06:16:53.423Z,7.13
2023-01-08T06:19:55.337Z,7.13
2023-01-08T06:22:57.119Z,7.10
2023-01-08T06:26:00.916Z,7.12
2023-01-08T06:29:02.799Z,7.13
2023-01-08T06:32:06.188Z,7.12
2023-01-08T06:35:09.001Z,7.09
2023-01-08T06:38:11.206Z,7.13
2023-01-08T06:41:13.352Z,7.06
2023-01-08T06:44:15.845Z,7.05
2023-01-08T06:47:18.851Z,7.11
2023-01-08T06:50:20.646Z,7.10
2023-01-08T06:53:22.971Z,7.06
2023-01-08T06:56:25.152Z,7.07
2023-01-08T06:59:26.974Z,7.05
2023-01-08T07:02:30.300Z,7.05
2023-01-08T07:05:32.605Z,7.04
2023-01-08T07:08:34.368Z,7.05
2023-01-08T07:11:36.162Z,7.03
2023-01-08T07:14:38.039Z,7.03
2023-01-08T07:17:41.266Z,7.04
2023-01-08T07:20:43.227Z,7.00
2023-01-08T07:23:47.272Z,7.02
2023-01-08T07:26:49.017Z,7.00
2023-01-08T07:29:50.925Z,7.01
2023-01-08T07:32:57.585Z,7.02
2023-01-08T07:35:59.871Z,7.01
2023-01-08T07:39:01.646Z,7.04
2023-01-08T07:42:03.659Z,7.03
2023-01-08T07:45:06.846Z,7.04
2023-01-08T07:48:16.611Z,7.07
2023-01-08T07:51:18.599Z,7.07
2023-01-08T07:54:20.566Z,7.02
2023-01-08T07:57:22.403Z,7.04
2023-01-08T08:00:24.399Z,7.05
2023-01-08T08:03:27.856Z,7.10
2023-01-08T08:06:29.810Z,7.09
2023-01-08T08:09:31.565Z,7.14
2023-01-08T08:12:33.284Z,7.13
2023-01-08T08:15:36.321Z,7.15
2023-01-08T08:18:39.747Z,7.09
2023-01-08T08:21:42.195Z,7.13
2023-01-08T08:24:44.234Z,7.16
2023-01-08T08:27:46.261Z,7.14
2023-01-08T08:30:48.171Z,7.12
2023-01-08T08:33:51.610Z,7.13
2023-01-08T08:36:53.536Z,7.17
2023-01-08T08:39:55.400Z,7.20
2023-01-08T08:42:58.167Z,7.18
2023-01-08T08:46:01.420Z,7.16
2023-01-08T08:49:04.686Z,7.20
2023-01-08T08:52:07.029Z,7.25
2023-01-08T08:55:13.172Z,7.25
2023-01-08T08:58:15.240Z,7.30
2023-01-08T09:01:17.393Z,7.29
2023-01-08T09:04:20.683Z,7.27
2023-01-08T09:07:23.269Z,7.26
2023-01-08T09:10:25.214Z,7.23
2023-01-08T09:13:27.343Z,7.25
2023-01-08T09:16:28.953Z,7.28
2023-01-08T09:19:32.417Z,7.32
2023-01-08T09:22:37.351Z,7.34
2023-01-08T09:25:39.332Z,7.35
2023-01-08T09:28:41.103Z,7.38
2023-01-08T09:31:43.122Z,7.35
2023-01-08T09:34:46.325Z,7.36
2023-01-08T09:37:54.860Z,7.43
2023-01-08T09:41:01.995Z,7.44
2023-01-08T09:44:05.925Z,7.44
2023-01-08T09:47:22.195Z,7.49
2023-01-08T09:50:27.653Z,7.46
2023-01-08T09:53:29.917Z,7.49
2023-01-08T09:56:34.165Z,7.49
2023-01-08T09:59:36.435Z,7.49
2023-01-08T10:02:40.791Z,7.49
2023-01-08T10:05:44.565Z,7.49
2023-01-08T10:08:46.709Z,7.49
2023-01-08T10:11:48.594Z,7.48
2023-01-08T10:14:52.112Z,7.42
2023-01-08T10:18:02.109Z,7.41
2023-01-08T10:21:05.635Z,7.43
2023-01-08T10:24:08.109Z,7.43
2023-01-08T10:27:14.061Z,7.45
2023-01-08T10:30:18.442Z,7.46
2023-01-08T10:33:24.743Z,7.49
2023-01-08T10:36:28.129Z,7.52
2023-01-08T10:39:31.129Z,7.57
2023-01-08T10:42:35.314Z,7.62
2023-01-08T10:45:39.438Z,7.69
2023-01-08T10:48:50.490Z,7.75
2023-01-08T10:51:55.697Z,7.80
2023-01-08T10:54:57.838Z,7.98
2023-01-08T10:58:03.004Z,8.06
2023-01-08T11:01:15.908Z,8.19
2023-01-08T11:04:26.661Z,8.19
2023-01-08T11:07:31.279Z,8.18
2023-01-08T11:10:34.973Z,8.26
2023-01-08T11:13:38.190Z,8.34
2023-01-08T11:16:41.991Z,8.45
2023-01-08T11:19:44.004Z,8.52
2023-01-08T11:22:47.468Z,8.42
2023-01-08T11:25:55.871Z,8.38
2023-01-08T11:29:03.942Z,8.27
2023-01-08T11:32:29.365Z,8.32
2023-01-08T11:35:36.427Z,8.25
2023-01-08T11:38:39.586Z,8.22
2023-01-08T11:42:07.578Z,8.22
2023-01-08T11:45:24.374Z,8.13
2023-01-08T11:48:47.339Z,8.17
2023-01-08T11:52:07.072Z,8.13
2023-01-08T11:55:24.427Z,8.12
2023-01-08T11:58:38.466Z,8.16
2023-01-08T12:01:50.203Z,8.14
2023-01-08T12:05:30.555Z,8.20
2023-01-08T12:08:44.486Z,8.24
2023-01-08T12:11:55.599Z,8.13
2023-01-08T12:15:07.658Z,8.07
2023-01-08T12:18:33.200Z,8.05
2023-01-08T12:21:58.335Z,7.95
2023-01-08T12:25:36.559Z,7.88
2023-01-08T12:29:03.975Z,8.03
2023-01-08T12:32:23.197Z,8.16
2023-01-08T12:35:29.244Z,8.47
2023-01-08T12:38:36.134Z,8.61
2023-01-08T12:41:43.484Z,8.76
2023-01-08T12:44:47.548Z,8.80
2023-01-08T12:47:55.154Z,8.92
2023-01-08T12:51:01.883Z,8.92
2023-01-08T12:54:14.471Z,9.00
2023-01-08T12:57:23.329Z,9.10
2023-01-08T13:00:37.792Z,9.16
2023-01-08T13:03:40.356Z,9.04
2023-01-08T13:06:57.539Z,8.96
2023-01-08T13:10:04.880Z,8.84
2023-01-08T13:13:25.079Z,8.89
2023-01-08T13:16:28.551Z,8.87
2023-01-08T13:19:35.331Z,8.77
2023-01-08T13:22:38.042Z,8.66
2023-01-08T13:25:52.102Z,8.60
2023-01-08T13:28:54.071Z,8.58
2023-01-08T13:31:57.501Z,8.71
2023-01-08T13:35:19.341Z,8.80
2023-01-08T13:38:22.359Z,8.69
2023-01-08T13:41:26.038Z,8.61
2023-01-08T13:44:29.935Z,8.61
2023-01-08T13:47:35.203Z,8.60
2023-01-08T13:50:38.541Z,8.65
2023-01-08T13:53:42.457Z,8.65
2023-01-08T13:56:46.614Z,8.59
2023-01-08T13:59:53.702Z,8.59
2023-01-08T14:02:57.150Z,8.53
2023-01-08T14:06:07.170Z,8.50
2023-01-08T14:09:21.032Z,8.55
2023-01-08T14:12:24.902Z,8.55
2023-01-08T14:15:29.240Z,8.53
2023-01-08T14:18:32.801Z,8.54
2023-01-08T14:21:37.823Z,8.53
2023-01-08T14:24:45.837Z,8.51
2023-01-08T14:27:59.592Z,8.47
2023-01-08T14:31:01.637Z,8.41
2023-01-08T14:34:05.421Z,8.32
2023-01-08T14:37:10.838Z,8.29
2023-01-08T14:40:17.353Z,8.25
2023-01-08T14:43:21.717Z,8.20
2023-01-08T14:46:27.688Z,8.19
2023-01-08T14:49:34.634Z,8.13
2023-01-08T14:52:40.548Z,8.10
2023-01-08T14:55:45.670Z,8.06
2023-01-08T14:58:48.648Z,8.08
2023-01-08T15:01:54.645Z,8.04
2023-01-08T15:05:15.178Z,7.95
2023-01-08T15:08:25.422Z,7.84
2023-01-08T15:11:31.026Z,7.80
2023-01-08T15:14:34.661Z,7.85
2023-01-08T15:17:36.549Z,7.87
2023-01-08T15:20:39.834Z,7.76
2023-01-08T15:23:46.510Z,7.68
2023-01-08T15:26:48.492Z,7.59
2023-01-08T15:29:52.525Z,7.53
2023-01-08T15:32:54.459Z,7.53
2023-01-08T15:35:58.469Z,7.51
2023-01-08T15:39:00.466Z,7.47
2023-01-08T15:42:40.298Z,7.45
2023-01-08T15:45:44.293Z,7.43
2023-01-08T15:48:46.030Z,7.47
2023-01-08T15:51:51.548Z,7.50
2023-01-08T15:54:53.394Z,7.46
2023-01-08T15:57:56.135Z,7.44
2023-01-08T16:00:58.047Z,7.41
2023-01-08T16:04:00.337Z,7.35
2023-01-08T16:07:03.673Z,7.33
2023-01-08T16:10:06.384Z,7.31
2023-01-08T16:13:10.303Z,7.30
2023-01-08T16:16:16.076Z,7.29
2023-01-08T16:19:18.348Z,7.23
2023-01-08T16:22:21.789Z,7.20
2023-01-08T16:25:24.824Z,7.20
2023-01-08T16:28:27.030Z,7.16
2023-01-08T16:31:28.704Z,7.17
2023-01-08T16:34:30.629Z,7.20
2023-01-08T16:37:33.911Z,7.18
2023-01-08T16:40:36.516Z,7.20
2023-01-08T16:43:41.262Z,7.13
2023-01-08T16:46:45.575Z,7.06
2023-01-08T16:49:50.288Z,7.06
2023-01-08T16:52:57.144Z,6.96
2023-01-08T16:56:00.269Z,7.02
2023-01-08T16:59:05.314Z,6.91
2023-01-08T17:02:10.967Z,6.82
2023-01-08T17:05:12.726Z,6.87
2023-01-08T17:08:17.229Z,6.80
2023-01-08T17:11:21.519Z,6.85
2023-01-08T17:14:23.381Z,6.81
2023-01-08T17:17:25.367Z,6.78
2023-01-08T17:20:30.342Z,6.74
2023-01-08T17:23:34.342Z,6.69
2023-01-08T17:26:36.317Z,6.71
2023-01-08T17:29:41.373Z,6.77
2023-01-08T17:32:43.189Z,6.76
2023-01-08T17:35:44.939Z,6.82
2023-01-08T17:38:50.551Z,6.86
2023-01-08T17:42:14.009Z,6.86
2023-01-08T17:45:17.618Z,6.84
2023-01-08T17:48:19.549Z,6.84
2023-01-08T17:51:21.486Z,6.85
2023-01-08T17:54:27.165Z,6.89
2023-01-08T17:57:31.597Z,6.90
2023-01-08T18:00:33.726Z,6.90
2023-01-08T18:03:35.335Z,6.92
2023-01-08T18:06:37.635Z,6.85
2023-01-08T18:09:40.763Z,6.79
2023-01-08T18:12:42.497Z,6.74
2023-01-08T18:15:44.518Z,6.79
2023-01-08T18:18:46.329Z,6.79
2023-01-08T18:25:10.633Z,6.73
2023-01-08T18:28:12.750Z,6.67
2023-01-08T18:31:15.413Z,6.66
2023-01-08T18:34:17.487Z,6.63
2023-01-08T18:37:19.369Z,6.65
2023-01-08T18:40:22.655Z,6.66
2023-01-08T18:43:25.573Z,6.69
2023-01-08T18:46:28.530Z,6.68
2023-01-08T18:49:30.329Z,6.78
2023-01-08T18:52:32.946Z,6.82
2023-01-08T18:55:36.223Z,6.85
2023-01-08T18:58:38.048Z,6.86
2023-01-08T19:01:40.121Z,6.83
2023-01-08T19:04:42.016Z,6.79
2023-01-08T19:07:44.086Z,6.77
2023-01-08T19:10:47.294Z,6.73
2023-01-08T19:13:48.989Z,6.70
2023-01-08T19:16:51.929Z,6.69
2023-01-08T19:19:53.866Z,6.66
2023-01-08T19:22:55.843Z,6.63
2023-01-08T19:25:59.123Z,6.59
2023-01-08T19:29:01.904Z,6.54
2023-01-08T19:32:04.954Z,6.57
2023-01-08T19:35:07.396Z,6.55
2023-01-08T19:38:09.228Z,6.48
2023-01-08T19:41:34.339Z,6.44
2023-01-08T19:44:36.114Z,6.35
2023-01-08T19:47:38.144Z,6.33
2023-01-08T19:50:40.527Z,6.33
2023-01-08T19:53:42.887Z,6.26
2023-01-08T19:56:50.044Z,6.25
2023-01-08T19:59:51.909Z,6.19
2023-01-08T20:02:53.726Z,6.19
2023-01-08T20:05:55.582Z,6.20
2023-01-08T20:08:59.661Z,6.24
2023-01-08T20:12:03.009Z,6.28
2023-01-08T20:15:06.237Z,6.34
2023-01-08T20:18:09.983Z,6.36
2023-01-08T20:21:15.388Z,6.37
2023-01-08T20:24:17.443Z,6.38
2023-01-08T20:27:20.774Z,6.44
2023-01-08T20:30:22.625Z,6.44
2023-01-08T20:33:24.484Z,6.41
2023-01-08T20:36:28.892Z,6.45
2023-01-08T20:39:30.892Z,6.44
2023-01-08T20:42:34.657Z,6.37
2023-01-08T20:45:40.493Z,6.38
2023-01-08T20:48:47.499Z,6.40
2023-01-08T20:51:58.613Z,6.38
2023-01-08T20:55:04.515Z,6.37
2023-01-08T20:58:07.741Z,6.37
2023-01-08T21:01:12.301Z,6.45
2023-01-08T21:04:14.519Z,6.45
2023-01-08T21:07:16.986Z,6.47
2023-01-08T21:10:18.950Z,6.47
2023-01-08T21:13:22.389Z,6.51
2023-01-08T21:16:28.544Z,6.48
2023-01-08T21:19:30.626Z,6.42
2023-01-08T21:22:32.530Z,6.42
2023-01-08T21:25:36.961Z,6.44
2023-01-08T21:28:41.280Z,6.46
2023-01-08T21:31:43.594Z,6.40
2023-01-08T21:34:45.964Z,6.35
2023-01-08T21:37:47.963Z,6.32
2023-01-08T21:40:58.788Z,6.32
2023-01-08T21:44:21.273Z,6.31
2023-01-08T21:47:22.997Z,6.26
2023-01-08T21:50:24.911Z,6.32
2023-01-08T21:53:34.764Z,6.27
2023-01-08T21:56:40.115Z,6.24
2023-01-08T21:59:46.055Z,6.33
2023-01-08T22:02:47.970Z,6.31
2023-01-08T22:05:59.898Z,6.39
2023-01-08T22:09:01.797Z,6.40
2023-01-08T22:12:03.869Z,6.44
2023-01-08T22:15:09.827Z,6.42
2023-01-08T22:18:11.879Z,6.46
2023-01-08T22:21:13.891Z,6.47
2023-01-08T22:24:15.616Z,6.46
2023-01-08T22:27:17.476Z,6.53
2023-01-08T22:30:21.091Z,6.58
2023-01-08T22:33:23.084Z,6.60
2023-01-08T22:36:25.650Z,6.60
2023-01-08T22:39:27.622Z,6.61
2023-01-08T22:42:29.684Z,6.58
2023-01-08T22:45:32.980Z,6.66
2023-01-08T22:48:35.523Z,6.67
2023-01-08T22:51:37.303Z,6.65
2023-01-08T22:54:39.435Z,6.70
2023-01-08T22:57:41.092Z,6.72
2023-01-08T23:00:44.787Z,6.71
2023-01-08T23:03:49.023Z,6.72
2023-01-08T23:06:50.762Z,6.77
2023-01-08T23:09:52.480Z,6.82
2023-01-08T23:12:55.073Z,6.81
2023-01-08T23:15:58.280Z,6.78
2023-01-08T23:19:01.323Z,6.80
2023-01-08T23:22:03.298Z,6.81
2023-01-08T23:25:06.040Z,6.83
2023-01-08T23:28:08.022Z,6.84
2023-01-08T23:31:14.790Z,6.83
2023-01-08T23:34:17.784Z,6.87
2023-01-08T23:37:20.315Z,6.87
2023-01-08T23:40:22.183Z,6.88
2023-01-08T23:43:24.417Z,6.89
2023-01-08T23:46:27.799Z,6.89
2023-01-08T23:49:29.782Z,6.89
2023-01-08T23:52:32.905Z,6.92
2023-01-08T23:55:35.032Z,6.89
2023-01-08T23:58:37.310Z,6.88
